sensor_id;sensor_type;location;lat;lon;timestamp;pressure;altitude;pressure_sealevel;temperature;humidity
41862;BME280;27537;57.134;-2.136;2023-02-28T00:01:24;103176.47;;;6.32;100.00
41862;BME280;27537;57.134;-2.136;2023-02-28T00:03:51;103206.44;;;6.57;100.00
41862;BME280;27537;57.134;-2.136;2023-02-28T00:06:18;103219.44;;;6.57;100.00
41862;BME280;27537;57.134;-2.136;2023-02-28T00:08:46;103235.13;;;6.62;100.00
41862;BME280;27537;57.134;-2.136;2023-02-28T00:11:14;103201.88;;;6.45;100.00
41862;BME280;27537;57.134;-2.136;2023-02-28T00:13:44;103242.06;;;6.61;100.00
41862;BME280;27537;57.134;-2.136;2023-02-28T00:16:18;103240.31;;;6.59;100.00
41862;BME280;27537;57.134;-2.136;2023-02-28T00:18:46;103205.31;;;6.43;100.00
41862;BME280;27537;57.134;-2.136;2023-02-28T00:21:14;103186.88;;;6.32;100.00
41862;BME280;27537;57.134;-2.136;2023-02-28T00:23:41;103182.44;;;6.28;100.00
41862;BME280;27537;57.134;-2.136;2023-02-28T00:26:08;103185.22;;;6.36;100.00
41862;BME280;27537;57.134;-2.136;2023-02-28T00:28:35;103204.44;;;6.44;100.00
41862;BME280;27537;57.134;-2.136;2023-02-28T00:31:02;103214.25;;;6.57;100.00
41862;BME280;27537;57.134;-2.136;2023-02-28T00:33:29;103209.78;;;6.50;100.00
41862;BME280;27537;57.134;-2.136;2023-02-28T00:36:06;103192.84;;;6.28;100.00
41862;BME280;27537;57.134;-2.136;2023-02-28T00:38:34;103231.47;;;6.51;100.00
41862;BME280;27537;57.134;-2.136;2023-02-28T00:41:01;103233.72;;;6.34;100.00
41862;BME280;27537;57.134;-2.136;2023-02-28T00:43:35;103188.09;;;6.07;100.00
41862;BME280;27537;57.134;-2.136;2023-02-28T00:46:04;103204.84;;;6.20;100.00
41862;BME280;27537;57.134;-2.136;2023-02-28T00:48:31;103174.03;;;5.97;100.00
41862;BME280;27537;57.134;-2.136;2023-02-28T00:50:58;103221.59;;;6.34;100.00
41862;BME280;27537;57.134;-2.136;2023-02-28T00:53:25;103212.78;;;6.27;100.00
41862;BME280;27537;57.134;-2.136;2023-02-28T00:55:52;103200.66;;;6.28;100.00
41862;BME280;27537;57.134;-2.136;2023-02-28T00:58:19;103206.50;;;6.16;100.00
41862;BME280;27537;57.134;-2.136;2023-02-28T01:00:46;103192.56;;;6.14;100.00
41862;BME280;27537;57.134;-2.136;2023-02-28T01:03:17;103202.00;;;6.07;100.00
41862;BME280;27537;57.134;-2.136;2023-02-28T01:05:44;103229.31;;;6.30;100.00
41862;BME280;27537;57.134;-2.136;2023-02-28T01:08:11;103176.69;;;5.99;100.00
41862;BME280;27537;57.134;-2.136;2023-02-28T01:10:38;103213.94;;;5.99;100.00
41862;BME280;27537;57.134;-2.136;2023-02-28T01:13:05;103204.72;;;6.14;100.00
41862;BME280;27537;57.134;-2.136;2023-02-28T01:15:32;103242.34;;;6.31;100.00
41862;BME280;27537;57.134;-2.136;2023-02-28T01:17:59;103245.69;;;6.24;100.00
41862;BME280;27537;57.134;-2.136;2023-02-28T01:20:26;103214.19;;;6.10;100.00
41862;BME280;27537;57.134;-2.136;2023-02-28T01:22:52;103199.19;;;5.97;100.00
41862;BME280;27537;57.134;-2.136;2023-02-28T01:25:19;103180.34;;;5.69;100.00
41862;BME280;27537;57.134;-2.136;2023-02-28T01:27:46;103198.88;;;5.86;100.00
41862;BME280;27537;57.134;-2.136;2023-02-28T01:30:13;103194.34;;;5.76;100.00
41862;BME280;27537;57.134;-2.136;2023-02-28T01:32:39;103196.22;;;5.81;100.00
41862;BME280;27537;57.134;-2.136;2023-02-28T01:35:06;103210.94;;;5.82;100.00
41862;BME280;27537;57.134;-2.136;2023-02-28T01:37:33;103217.38;;;5.97;100.00
41862;BME280;27537;57.134;-2.136;2023-02-28T01:40:00;103181.16;;;5.68;100.00
41862;BME280;27537;57.134;-2.136;2023-02-28T01:42:26;103222.28;;;5.86;100.00
41862;BME280;27537;57.134;-2.136;2023-02-28T01:47:23;103233.94;;;6.00;100.00
41862;BME280;27537;57.134;-2.136;2023-02-28T01:49:52;103202.00;;;5.69;100.00
41862;BME280;27537;57.134;-2.136;2023-02-28T01:52:19;103227.53;;;5.87;100.00
41862;BME280;27537;57.134;-2.136;2023-02-28T01:54:51;103229.09;;;5.79;100.00
41862;BME280;27537;57.134;-2.136;2023-02-28T01:57:22;103239.63;;;5.85;100.00
41862;BME280;27537;57.134;-2.136;2023-02-28T01:59:57;103241.44;;;5.89;100.00
41862;BME280;27537;57.134;-2.136;2023-02-28T02:02:27;103229.94;;;5.78;100.00
41862;BME280;27537;57.134;-2.136;2023-02-28T02:05:12;103257.97;;;5.93;100.00
41862;BME280;27537;57.134;-2.136;2023-02-28T02:07:43;103205.22;;;5.59;100.00
41862;BME280;27537;57.134;-2.136;2023-02-28T02:10:17;103262.53;;;6.02;100.00
41862;BME280;27537;57.134;-2.136;2023-02-28T02:24:46;103255.41;;;5.95;100.00
41862;BME280;27537;57.134;-2.136;2023-02-28T02:33:06;103261.59;;;5.98;100.00
41862;BME280;27537;57.134;-2.136;2023-02-28T02:35:48;103205.06;;;5.51;100.00
41862;BME280;27537;57.134;-2.136;2023-02-28T02:38:39;103240.91;;;5.66;100.00
41862;BME280;27537;57.134;-2.136;2023-02-28T02:41:28;103258.69;;;5.86;100.00
41862;BME280;27537;57.134;-2.136;2023-02-28T02:44:11;103263.09;;;5.88;100.00
41862;BME280;27537;57.134;-2.136;2023-02-28T02:46:44;103203.47;;;5.57;100.00
41862;BME280;27537;57.134;-2.136;2023-02-28T02:49:35;103250.78;;;5.80;100.00
41862;BME280;27537;57.134;-2.136;2023-02-28T02:52:06;103231.34;;;5.64;100.00
41862;BME280;27537;57.134;-2.136;2023-02-28T02:54:40;103240.97;;;5.68;100.00
41862;BME280;27537;57.134;-2.136;2023-02-28T02:57:20;103219.84;;;5.54;100.00
41862;BME280;27537;57.134;-2.136;2023-02-28T02:59:51;103222.34;;;5.49;100.00
41862;BME280;27537;57.134;-2.136;2023-02-28T03:02:20;103199.75;;;5.45;100.00
41862;BME280;27537;57.134;-2.136;2023-02-28T03:04:59;103228.94;;;5.73;100.00
41862;BME280;27537;57.134;-2.136;2023-02-28T03:07:27;103228.88;;;5.70;100.00
41862;BME280;27537;57.134;-2.136;2023-02-28T03:09:56;103235.59;;;5.60;100.00
41862;BME280;27537;57.134;-2.136;2023-02-28T03:12:52;103218.81;;;5.46;100.00
41862;BME280;27537;57.134;-2.136;2023-02-28T03:15:35;103239.22;;;5.67;100.00
41862;BME280;27537;57.134;-2.136;2023-02-28T03:18:22;103250.59;;;5.74;100.00
41862;BME280;27537;57.134;-2.136;2023-02-28T03:21:01;103228.66;;;5.61;100.00
41862;BME280;27537;57.134;-2.136;2023-02-28T03:23:48;103238.63;;;5.80;100.00
41862;BME280;27537;57.134;-2.136;2023-02-28T03:26:27;103193.78;;;5.49;100.00
41862;BME280;27537;57.134;-2.136;2023-02-28T03:31:35;103198.09;;;5.49;100.00
41862;BME280;27537;57.134;-2.136;2023-02-28T03:34:26;103176.00;;;5.30;100.00
41862;BME280;27537;57.134;-2.136;2023-02-28T03:37:00;103234.72;;;5.60;100.00
41862;BME280;27537;57.134;-2.136;2023-02-28T03:39:41;103266.78;;;5.60;100.00
41862;BME280;27537;57.134;-2.136;2023-02-28T03:42:13;103209.69;;;5.27;100.00
41862;BME280;27537;57.134;-2.136;2023-02-28T03:45:08;103261.66;;;5.63;100.00
41862;BME280;27537;57.134;-2.136;2023-02-28T03:48:02;103262.56;;;5.65;100.00
41862;BME280;27537;57.134;-2.136;2023-02-28T03:50:38;103243.75;;;5.39;100.00
41862;BME280;27537;57.134;-2.136;2023-02-28T03:53:14;103252.75;;;5.54;100.00
41862;BME280;27537;57.134;-2.136;2023-02-28T03:55:46;103251.34;;;5.30;100.00
41862;BME280;27537;57.134;-2.136;2023-02-28T03:58:24;103264.72;;;5.47;100.00
41862;BME280;27537;57.134;-2.136;2023-02-28T04:01:04;103263.72;;;5.42;100.00
41862;BME280;27537;57.134;-2.136;2023-02-28T04:03:38;103251.44;;;5.35;100.00
41862;BME280;27537;57.134;-2.136;2023-02-28T04:06:07;103232.72;;;5.13;100.00
41862;BME280;27537;57.134;-2.136;2023-02-28T04:08:39;103228.13;;;5.03;100.00
41862;BME280;27537;57.134;-2.136;2023-02-28T04:11:44;103260.59;;;5.20;100.00
41862;BME280;27537;57.134;-2.136;2023-02-28T04:14:12;103214.06;;;4.93;100.00
41862;BME280;27537;57.134;-2.136;2023-02-28T04:16:40;103260.69;;;5.23;100.00
41862;BME280;27537;57.134;-2.136;2023-02-28T04:19:10;103194.78;;;4.85;100.00
41862;BME280;27537;57.134;-2.136;2023-02-28T04:21:41;103180.81;;;4.80;100.00
41862;BME280;27537;57.134;-2.136;2023-02-28T04:24:10;103256.22;;;5.18;100.00
41862;BME280;27537;57.134;-2.136;2023-02-28T04:26:43;103208.03;;;4.94;100.00
41862;BME280;27537;57.134;-2.136;2023-02-28T04:29:12;103227.53;;;5.13;100.00
41862;BME280;27537;57.134;-2.136;2023-02-28T04:31:39;103201.66;;;4.83;100.00
41862;BME280;27537;57.134;-2.136;2023-02-28T04:34:06;103213.44;;;5.03;100.00
41862;BME280;27537;57.134;-2.136;2023-02-28T04:36:33;103233.16;;;5.30;100.00
41862;BME280;27537;57.134;-2.136;2023-02-28T04:39:00;103191.06;;;5.08;100.00
41862;BME280;27537;57.134;-2.136;2023-02-28T04:41:27;103164.31;;;4.78;100.00
41862;BME280;27537;57.134;-2.136;2023-02-28T04:43:57;103198.75;;;5.04;100.00
41862;BME280;27537;57.134;-2.136;2023-02-28T04:46:24;103221.72;;;5.23;100.00
41862;BME280;27537;57.134;-2.136;2023-02-28T04:48:51;103158.56;;;4.89;100.00
41862;BME280;27537;57.134;-2.136;2023-02-28T04:51:18;103231.53;;;5.35;100.00
41862;BME280;27537;57.134;-2.136;2023-02-28T04:53:46;103236.53;;;5.27;100.00
41862;BME280;27537;57.134;-2.136;2023-02-28T04:56:15;103207.75;;;5.18;100.00
41862;BME280;27537;57.134;-2.136;2023-02-28T04:58:43;103213.84;;;5.20;100.00
41862;BME280;27537;57.134;-2.136;2023-02-28T05:01:19;103252.28;;;5.33;100.00
41862;BME280;27537;57.134;-2.136;2023-02-28T05:03:47;103240.25;;;5.37;100.00
41862;BME280;27537;57.134;-2.136;2023-02-28T05:06:14;103206.88;;;5.18;100.00
41862;BME280;27537;57.134;-2.136;2023-02-28T05:08:41;103253.16;;;5.34;100.00
41862;BME280;27537;57.134;-2.136;2023-02-28T05:11:25;103216.22;;;5.11;100.00
41862;BME280;27537;57.134;-2.136;2023-02-28T05:13:53;103188.81;;;4.87;100.00
41862;BME280;27537;57.134;-2.136;2023-02-28T05:16:20;103223.41;;;5.21;100.00
41862;BME280;27537;57.134;-2.136;2023-02-28T05:18:47;103239.22;;;5.30;100.00
41862;BME280;27537;57.134;-2.136;2023-02-28T05:21:32;103210.81;;;5.02;100.00
41862;BME280;27537;57.134;-2.136;2023-02-28T05:24:07;103205.44;;;4.94;100.00
41862;BME280;27537;57.134;-2.136;2023-02-28T05:26:40;103273.00;;;5.30;100.00
41862;BME280;27537;57.134;-2.136;2023-02-28T05:29:07;103209.09;;;5.02;100.00
41862;BME280;27537;57.134;-2.136;2023-02-28T05:31:34;103253.97;;;5.31;100.00
41862;BME280;27537;57.134;-2.136;2023-02-28T05:34:02;103251.97;;;5.21;100.00
41862;BME280;27537;57.134;-2.136;2023-02-28T05:36:31;103236.56;;;5.29;100.00
41862;BME280;27537;57.134;-2.136;2023-02-28T05:38:58;103260.16;;;5.38;100.00
41862;BME280;27537;57.134;-2.136;2023-02-28T05:41:24;103226.69;;;5.14;100.00
41862;BME280;27537;57.134;-2.136;2023-02-28T05:43:53;103238.31;;;5.28;100.00
41862;BME280;27537;57.134;-2.136;2023-02-28T05:46:19;103195.00;;;4.92;100.00
41862;BME280;27537;57.134;-2.136;2023-02-28T05:48:47;103249.13;;;5.45;100.00
41862;BME280;27537;57.134;-2.136;2023-02-28T05:51:15;103257.31;;;5.27;100.00
41862;BME280;27537;57.134;-2.136;2023-02-28T05:53:42;103217.59;;;4.97;100.00
41862;BME280;27537;57.134;-2.136;2023-02-28T05:56:09;103196.59;;;4.87;100.00
41862;BME280;27537;57.134;-2.136;2023-02-28T05:58:36;103176.03;;;4.62;100.00
41862;BME280;27537;57.134;-2.136;2023-02-28T06:01:31;103248.13;;;5.05;100.00
41862;BME280;27537;57.134;-2.136;2023-02-28T06:04:00;103189.31;;;4.74;100.00
41862;BME280;27537;57.134;-2.136;2023-02-28T06:06:28;103186.69;;;4.72;100.00
41862;BME280;27537;57.134;-2.136;2023-02-28T06:09:03;103221.84;;;4.93;100.00
41862;BME280;27537;57.134;-2.136;2023-02-28T06:11:31;103181.59;;;4.75;100.00
41862;BME280;27537;57.134;-2.136;2023-02-28T06:13:59;103228.13;;;5.01;100.00
41862;BME280;27537;57.134;-2.136;2023-02-28T06:16:28;103229.09;;;5.06;100.00
41862;BME280;27537;57.134;-2.136;2023-02-28T06:18:57;103253.28;;;5.04;100.00
41862;BME280;27537;57.134;-2.136;2023-02-28T06:21:24;103205.22;;;4.86;100.00
41862;BME280;27537;57.134;-2.136;2023-02-28T06:23:51;103256.88;;;5.09;100.00
41862;BME280;27537;57.134;-2.136;2023-02-28T06:26:18;103229.84;;;5.02;100.00
41862;BME280;27537;57.134;-2.136;2023-02-28T06:28:45;103276.34;;;5.26;100.00
41862;BME280;27537;57.134;-2.136;2023-02-28T06:31:15;103254.50;;;5.18;100.00
41862;BME280;27537;57.134;-2.136;2023-02-28T06:33:43;103258.91;;;5.21;100.00
41862;BME280;27537;57.134;-2.136;2023-02-28T06:36:11;103279.00;;;5.28;100.00
41862;BME280;27537;57.134;-2.136;2023-02-28T06:38:39;103278.03;;;5.24;100.00
41862;BME280;27537;57.134;-2.136;2023-02-28T06:41:08;103275.91;;;5.09;100.00
41862;BME280;27537;57.134;-2.136;2023-02-28T06:43:40;103222.97;;;4.71;100.00
41862;BME280;27537;57.134;-2.136;2023-02-28T06:46:09;103229.63;;;4.93;100.00
41862;BME280;27537;57.134;-2.136;2023-02-28T06:48:37;103211.81;;;4.73;100.00
41862;BME280;27537;57.134;-2.136;2023-02-28T06:51:05;103286.47;;;5.16;100.00
41862;BME280;27537;57.134;-2.136;2023-02-28T06:53:32;103229.31;;;4.81;100.00
41862;BME280;27537;57.134;-2.136;2023-02-28T06:55:59;103244.38;;;4.95;100.00
41862;BME280;27537;57.134;-2.136;2023-02-28T06:58:26;103213.53;;;4.73;100.00
41862;BME280;27537;57.134;-2.136;2023-02-28T07:00:53;103275.88;;;5.08;100.00
41862;BME280;27537;57.134;-2.136;2023-02-28T07:03:20;103261.75;;;4.97;100.00
41862;BME280;27537;57.134;-2.136;2023-02-28T07:05:47;103220.50;;;4.75;100.00
41862;BME280;27537;57.134;-2.136;2023-02-28T07:08:14;103267.22;;;5.07;100.00
41862;BME280;27537;57.134;-2.136;2023-02-28T07:10:40;103249.53;;;4.92;100.00
41862;BME280;27537;57.134;-2.136;2023-02-28T07:13:08;103275.63;;;4.99;100.00
41862;BME280;27537;57.134;-2.136;2023-02-28T07:15:36;103310.78;;;5.18;100.00
41862;BME280;27537;57.134;-2.136;2023-02-28T07:18:08;103272.94;;;4.94;100.00
41862;BME280;27537;57.134;-2.136;2023-02-28T07:20:35;103240.03;;;4.61;100.00
41862;BME280;27537;57.134;-2.136;2023-02-28T07:23:01;103286.56;;;4.85;100.00
41862;BME280;27537;57.134;-2.136;2023-02-28T07:25:29;103318.56;;;5.18;100.00
41862;BME280;27537;57.134;-2.136;2023-02-28T07:27:56;103271.13;;;4.91;100.00
41862;BME280;27537;57.134;-2.136;2023-02-28T07:30:22;103267.75;;;4.94;100.00
41862;BME280;27537;57.134;-2.136;2023-02-28T07:32:49;103248.09;;;4.72;100.00
41862;BME280;27537;57.134;-2.136;2023-02-28T07:35:17;103317.69;;;5.19;100.00
41862;BME280;27537;57.134;-2.136;2023-02-28T07:37:43;103249.13;;;4.77;100.00
41862;BME280;27537;57.134;-2.136;2023-02-28T07:40:11;103260.59;;;4.85;100.00
41862;BME280;27537;57.134;-2.136;2023-02-28T07:42:39;103322.66;;;5.09;100.00
41862;BME280;27537;57.134;-2.136;2023-02-28T07:45:07;103307.03;;;5.08;100.00
41862;BME280;27537;57.134;-2.136;2023-02-28T07:47:34;103240.03;;;4.61;100.00
41862;BME280;27537;57.134;-2.136;2023-02-28T07:50:01;103284.06;;;4.90;100.00
41862;BME280;27537;57.134;-2.136;2023-02-28T07:52:28;103305.66;;;5.22;100.00
41862;BME280;27537;57.134;-2.136;2023-02-28T07:54:55;103297.59;;;5.10;100.00
41862;BME280;27537;57.134;-2.136;2023-02-28T07:57:21;103281.91;;;5.40;100.00
41862;BME280;27537;57.134;-2.136;2023-02-28T07:59:48;103328.19;;;6.30;100.00
41862;BME280;27537;57.134;-2.136;2023-02-28T08:02:16;103308.72;;;6.12;100.00
41862;BME280;27537;57.134;-2.136;2023-02-28T08:04:44;103293.53;;;5.93;100.00
41862;BME280;27537;57.134;-2.136;2023-02-28T08:07:12;103307.44;;;5.95;100.00
41862;BME280;27537;57.134;-2.136;2023-02-28T08:09:40;103301.00;;;5.77;100.00
41862;BME280;27537;57.134;-2.136;2023-02-28T08:12:08;103325.63;;;5.95;100.00
41862;BME280;27537;57.134;-2.136;2023-02-28T08:14:36;103321.16;;;5.89;100.00
41862;BME280;27537;57.134;-2.136;2023-02-28T08:17:03;103329.75;;;5.85;100.00
41862;BME280;27537;57.134;-2.136;2023-02-28T08:19:30;103272.28;;;5.73;100.00
41862;BME280;27537;57.134;-2.136;2023-02-28T08:21:57;103327.63;;;6.05;100.00
41862;BME280;27537;57.134;-2.136;2023-02-28T08:24:24;103287.38;;;5.89;100.00
41862;BME280;27537;57.134;-2.136;2023-02-28T08:26:51;103294.53;;;5.61;100.00
41862;BME280;27537;57.134;-2.136;2023-02-28T08:29:18;103301.22;;;5.51;100.00
41862;BME280;27537;57.134;-2.136;2023-02-28T08:31:45;103292.31;;;5.42;100.00
41862;BME280;27537;57.134;-2.136;2023-02-28T08:34:13;103312.94;;;5.70;100.00
41862;BME280;27537;57.134;-2.136;2023-02-28T08:36:41;103318.19;;;5.74;100.00
41862;BME280;27537;57.134;-2.136;2023-02-28T08:39:09;103288.41;;;5.59;100.00
41862;BME280;27537;57.134;-2.136;2023-02-28T08:41:36;103310.66;;;5.83;100.00
41862;BME280;27537;57.134;-2.136;2023-02-28T08:44:03;103329.50;;;5.74;100.00
41862;BME280;27537;57.134;-2.136;2023-02-28T08:46:30;103335.88;;;5.52;100.00
41862;BME280;27537;57.134;-2.136;2023-02-28T08:48:57;103331.97;;;5.69;100.00
41862;BME280;27537;57.134;-2.136;2023-02-28T08:51:28;103275.53;;;5.64;100.00
41862;BME280;27537;57.134;-2.136;2023-02-28T08:53:59;103332.06;;;6.07;100.00
41862;BME280;27537;57.134;-2.136;2023-02-28T08:56:27;103364.38;;;6.19;100.00
41862;BME280;27537;57.134;-2.136;2023-02-28T08:58:56;103352.03;;;6.10;100.00
41862;BME280;27537;57.134;-2.136;2023-02-28T09:01:28;103352.25;;;6.19;100.00
41862;BME280;27537;57.134;-2.136;2023-02-28T09:03:56;103289.06;;;5.87;100.00
41862;BME280;27537;57.134;-2.136;2023-02-28T09:06:25;103335.25;;;5.96;100.00
41862;BME280;27537;57.134;-2.136;2023-02-28T09:08:52;103283.66;;;5.78;100.00
41862;BME280;27537;57.134;-2.136;2023-02-28T09:11:20;103296.81;;;5.85;100.00
41862;BME280;27537;57.134;-2.136;2023-02-28T09:13:47;103286.06;;;5.70;100.00
41862;BME280;27537;57.134;-2.136;2023-02-28T09:16:14;103345.13;;;6.12;100.00
41862;BME280;27537;57.134;-2.136;2023-02-28T09:18:43;103343.63;;;6.22;100.00
41862;BME280;27537;57.134;-2.136;2023-02-28T09:21:15;103283.94;;;5.90;100.00
41862;BME280;27537;57.134;-2.136;2023-02-28T09:23:44;103328.91;;;6.22;100.00
41862;BME280;27537;57.134;-2.136;2023-02-28T09:26:15;103358.31;;;6.18;100.00
41862;BME280;27537;57.134;-2.136;2023-02-28T09:28:43;103358.69;;;6.37;100.00
41862;BME280;27537;57.134;-2.136;2023-02-28T09:31:13;103361.41;;;6.41;100.00
41862;BME280;27537;57.134;-2.136;2023-02-28T09:33:40;103326.72;;;6.03;100.00
41862;BME280;27537;57.134;-2.136;2023-02-28T09:36:08;103345.72;;;5.99;100.00
41862;BME280;27537;57.134;-2.136;2023-02-28T09:38:35;103316.06;;;5.92;100.00
41862;BME280;27537;57.134;-2.136;2023-02-28T09:41:09;103375.19;;;6.37;100.00
41862;BME280;27537;57.134;-2.136;2023-02-28T09:43:40;103380.66;;;6.50;100.00
41862;BME280;27537;57.134;-2.136;2023-02-28T09:46:25;103326.44;;;6.30;100.00
41862;BME280;27537;57.134;-2.136;2023-02-28T09:48:54;103379.38;;;6.70;100.00
41862;BME280;27537;57.134;-2.136;2023-02-28T09:51:40;103384.09;;;6.47;100.00
41862;BME280;27537;57.134;-2.136;2023-02-28T09:54:15;103327.59;;;6.41;100.00
41862;BME280;27537;57.134;-2.136;2023-02-28T09:56:51;103360.56;;;6.85;100.00
41862;BME280;27537;57.134;-2.136;2023-02-28T10:05:15;103318.13;;;6.45;100.00
41862;BME280;27537;57.134;-2.136;2023-02-28T10:07:50;103391.16;;;6.95;100.00
41862;BME280;27537;57.134;-2.136;2023-02-28T10:10:26;103359.84;;;6.92;100.00
41862;BME280;27537;57.134;-2.136;2023-02-28T10:12:57;103358.84;;;7.31;100.00
41862;BME280;27537;57.134;-2.136;2023-02-28T10:15:27;103335.00;;;7.10;100.00
41862;BME280;27537;57.134;-2.136;2023-02-28T10:18:05;103311.94;;;7.31;100.00
41862;BME280;27537;57.134;-2.136;2023-02-28T10:20:39;103326.50;;;7.20;100.00
41862;BME280;27537;57.134;-2.136;2023-02-28T10:25:54;103387.28;;;7.20;100.00
41862;BME280;27537;57.134;-2.136;2023-02-28T10:28:21;103353.66;;;6.86;100.00
41862;BME280;27537;57.134;-2.136;2023-02-28T10:30:50;103328.50;;;6.88;100.00
41862;BME280;27537;57.134;-2.136;2023-02-28T10:33:32;103366.41;;;7.17;100.00
41862;BME280;27537;57.134;-2.136;2023-02-28T10:36:02;103381.41;;;7.31;100.00
41862;BME280;27537;57.134;-2.136;2023-02-28T10:38:34;103362.50;;;7.41;100.00
41862;BME280;27537;57.134;-2.136;2023-02-28T10:41:09;103330.22;;;7.34;100.00
41862;BME280;27537;57.134;-2.136;2023-02-28T10:43:37;103351.53;;;7.60;100.00
41862;BME280;27537;57.134;-2.136;2023-02-28T10:48:45;103344.44;;;7.53;100.00
41862;BME280;27537;57.134;-2.136;2023-02-28T10:51:16;103377.34;;;8.00;100.00
41862;BME280;27537;57.134;-2.136;2023-02-28T10:53:49;103379.22;;;8.06;100.00
41862;BME280;27537;57.134;-2.136;2023-02-28T10:56:32;103338.31;;;7.50;100.00
41862;BME280;27537;57.134;-2.136;2023-02-28T11:01:38;103386.03;;;7.46;100.00
41862;BME280;27537;57.134;-2.136;2023-02-28T11:07:26;103386.78;;;7.40;100.00
41862;BME280;27537;57.134;-2.136;2023-02-28T11:10:07;103339.97;;;6.97;100.00
41862;BME280;27537;57.134;-2.136;2023-02-28T11:12:39;103305.19;;;6.95;100.00
41862;BME280;27537;57.134;-2.136;2023-02-28T11:15:26;103304.56;;;7.07;100.00
41862;BME280;27537;57.134;-2.136;2023-02-28T11:20:50;103318.81;;;7.28;100.00
41862;BME280;27537;57.134;-2.136;2023-02-28T11:23:19;103343.97;;;7.26;100.00
41862;BME280;27537;57.134;-2.136;2023-02-28T11:25:52;103286.28;;;7.06;100.00
41862;BME280;27537;57.134;-2.136;2023-02-28T11:31:02;103370.72;;;7.66;100.00
41862;BME280;27537;57.134;-2.136;2023-02-28T11:36:09;103336.53;;;7.49;100.00
41862;BME280;27537;57.134;-2.136;2023-02-28T11:38:37;103348.06;;;7.60;100.00
41862;BME280;27537;57.134;-2.136;2023-02-28T11:49:23;103333.78;;;7.39;100.00
41862;BME280;27537;57.134;-2.136;2023-02-28T11:55:02;103388.38;;;7.82;100.00
41862;BME280;27537;57.134;-2.136;2023-02-28T11:57:53;103380.75;;;7.94;100.00
41862;BME280;27537;57.134;-2.136;2023-02-28T12:00:53;103351.19;;;7.94;100.00
41862;BME280;27537;57.134;-2.136;2023-02-28T12:17:13;103366.38;;;7.66;100.00
41862;BME280;27537;57.134;-2.136;2023-02-28T12:27:40;103308.44;;;7.31;100.00
41862;BME280;27537;57.134;-2.136;2023-02-28T12:30:27;103381.44;;;7.81;100.00
41862;BME280;27537;57.134;-2.136;2023-02-28T12:33:07;103289.13;;;7.18;100.00
41862;BME280;27537;57.134;-2.136;2023-02-28T12:35:58;103366.47;;;7.71;100.00
41862;BME280;27537;57.134;-2.136;2023-02-28T12:38:50;103305.00;;;7.32;100.00
41862;BME280;27537;57.134;-2.136;2023-02-28T12:43:49;103354.50;;;7.32;100.00
41862;BME280;27537;57.134;-2.136;2023-02-28T12:46:25;103301.75;;;6.96;100.00
41862;BME280;27537;57.134;-2.136;2023-02-28T12:48:57;103336.06;;;7.19;100.00
41862;BME280;27537;57.134;-2.136;2023-02-28T12:51:26;103313.56;;;7.25;100.00
41862;BME280;27537;57.134;-2.136;2023-02-28T12:56:58;103306.53;;;7.20;100.00
41862;BME280;27537;57.134;-2.136;2023-02-28T12:59:41;103364.50;;;7.57;100.00
41862;BME280;27537;57.134;-2.136;2023-02-28T13:10:09;103362.00;;;7.64;100.00
41862;BME280;27537;57.134;-2.136;2023-02-28T13:12:47;103321.84;;;7.51;100.00
41862;BME280;27537;57.134;-2.136;2023-02-28T13:15:22;103302.38;;;7.32;100.00
41862;BME280;27537;57.134;-2.136;2023-02-28T13:17:53;103329.28;;;7.31;100.00
41862;BME280;27537;57.134;-2.136;2023-02-28T13:20:26;103369.13;;;7.72;100.00
41862;BME280;27537;57.134;-2.136;2023-02-28T13:22:55;103326.13;;;7.47;100.00
41862;BME280;27537;57.134;-2.136;2023-02-28T13:28:11;103348.03;;;7.58;100.00
41862;BME280;27537;57.134;-2.136;2023-02-28T13:33:23;103307.19;;;7.60;100.00
41862;BME280;27537;57.134;-2.136;2023-02-28T13:38:47;103337.03;;;7.78;100.00
41862;BME280;27537;57.134;-2.136;2023-02-28T13:51:53;103342.06;;;7.66;100.00
41862;BME280;27537;57.134;-2.136;2023-02-28T14:05:14;103335.53;;;7.39;100.00
41862;BME280;27537;57.134;-2.136;2023-02-28T14:07:46;103307.78;;;6.94;100.00
41862;BME280;27537;57.134;-2.136;2023-02-28T14:10:22;103341.44;;;7.30;100.00
41862;BME280;27537;57.134;-2.136;2023-02-28T14:18:05;103315.69;;;7.47;100.00
41862;BME280;27537;57.134;-2.136;2023-02-28T14:20:40;103341.91;;;7.56;100.00
41862;BME280;27537;57.134;-2.136;2023-02-28T14:36:53;103304.31;;;7.42;100.00
41862;BME280;27537;57.134;-2.136;2023-02-28T14:39:25;103275.84;;;7.54;100.00
41862;BME280;27537;57.134;-2.136;2023-02-28T14:41:52;103249.72;;;7.53;100.00
41862;BME280;27537;57.134;-2.136;2023-02-28T14:44:24;103278.63;;;7.67;100.00
41862;BME280;27537;57.134;-2.136;2023-02-28T14:46:57;103288.28;;;7.72;100.00
41862;BME280;27537;57.134;-2.136;2023-02-28T14:52:06;103281.22;;;7.67;100.00
41862;BME280;27537;57.134;-2.136;2023-02-28T14:54:37;103270.66;;;7.59;100.00
41862;BME280;27537;57.134;-2.136;2023-02-28T14:57:05;103305.88;;;7.87;100.00
41862;BME280;27537;57.134;-2.136;2023-02-28T14:59:34;103255.91;;;7.61;100.00
41862;BME280;27537;57.134;-2.136;2023-02-28T15:02:29;103309.41;;;7.92;100.00
41862;BME280;27537;57.134;-2.136;2023-02-28T15:05:25;103300.56;;;7.81;100.00
41862;BME280;27537;57.134;-2.136;2023-02-28T15:08:14;103247.38;;;7.71;100.00
41862;BME280;27537;57.134;-2.136;2023-02-28T15:13:19;103285.75;;;7.80;100.00
41862;BME280;27537;57.134;-2.136;2023-02-28T15:21:05;103272.56;;;7.69;100.00
41862;BME280;27537;57.134;-2.136;2023-02-28T15:23:35;103269.94;;;7.68;100.00
41862;BME280;27537;57.134;-2.136;2023-02-28T15:26:03;103258.50;;;7.59;100.00
41862;BME280;27537;57.134;-2.136;2023-02-28T15:28:31;103235.13;;;7.66;100.00
41862;BME280;27537;57.134;-2.136;2023-02-28T15:31:01;103276.50;;;8.01;100.00
41862;BME280;27537;57.134;-2.136;2023-02-28T15:33:31;103266.88;;;7.98;100.00
41862;BME280;27537;57.134;-2.136;2023-02-28T15:36:06;103272.00;;;7.90;100.00